Time;durP1;ratioP1;P1;durP2;ratioP2;P2;SDS_P1;SDS_P2;PMS_P1;PMS_P2;Temp;Humidity;BMP_temperature;BMP_pressure;BME280_temperature;BME280_humidity;BME280_pressure;Samples;Min_cycle;Max_cycle;Signal;HPM_P1;HPM_P2
2021/05/06 00:34:12;;;;;;;375.00;199.33;;;;;;;7.87;52.45;98312.13;5078747;28;20476;-61
2021/05/06 00:36:38;;;;;;;374.63;199.17;;;;;;;7.84;52.51;98316.44;5089139;28;20031;-60
2021/05/06 00:39:12;;;;;;;391.33;203.27;;;;;;;7.84;53.07;98316.44;5081344;28;20020;-61
2021/05/06 00:41:59;;;;;;;379.33;201.10;;;;;;;7.82;53.21;98314.75;5082104;28;20020;-62
2021/05/06 00:45:08;;;;;;;399.47;197.67;;;;;;;7.74;53.66;98318.28;5081188;28;20377;-61
2021/05/06 00:55:58;;;;;;;346.37;178.13;;;;;;;7.60;54.21;98327.78;5086015;28;20051;-62
2021/05/06 00:58:40;;;;;;;400.67;201.57;;;;;;;7.57;54.42;98320.19;5085578;28;20354;-62
2021/05/06 01:06:20;;;;;;;294.90;183.13;;;;;;;7.56;55.05;98329.53;5089179;28;20098;-62
2021/05/06 01:08:50;;;;;;;302.47;182.27;;;;;;;7.52;55.16;98330.44;5094854;28;20042;-62
2021/05/06 01:11:42;;;;;;;313.67;185.40;;;;;;;7.49;55.62;98337.28;5084974;28;20028;-62
2021/05/06 01:17:23;;;;;;;345.13;191.47;;;;;;;7.26;57.00;98337.53;5082586;28;20486;-60
2021/05/06 01:19:49;;;;;;;359.03;188.77;;;;;;;7.16;57.87;98336.81;5082965;28;20036;-61
2021/05/06 01:22:14;;;;;;;383.07;203.87;;;;;;;7.16;57.71;98341.91;5086135;28;20039;-61
2021/05/06 01:24:40;;;;;;;393.63;193.40;;;;;;;7.16;57.73;98333.41;5084643;28;20102;-61
2021/05/06 01:27:16;;;;;;;406.13;199.90;;;;;;;7.12;57.64;98329.19;5083738;28;20024;-62
2021/05/06 01:29:44;;;;;;;404.47;193.77;;;;;;;7.05;58.53;98327.56;5102126;28;20043;-63
2021/05/06 01:34:36;;;;;;;423.63;194.70;;;;;;;7.05;58.58;98336.03;5087122;28;20030;-63
2021/05/06 01:37:16;;;;;;;427.63;188.57;;;;;;;7.04;58.54;98334.38;5082835;28;20385;-62
2021/05/06 01:42:27;;;;;;;429.03;188.00;;;;;;;6.86;59.60;98329.44;5086026;28;20020;-62
2021/05/06 01:47:34;;;;;;;434.87;189.70;;;;;;;6.75;59.88;98331.22;5086992;28;20576;-63
2021/05/06 01:50:15;;;;;;;434.10;188.77;;;;;;;6.76;58.77;98333.78;5085614;28;20059;-62
2021/05/06 02:01:22;;;;;;;431.93;180.47;;;;;;;6.64;60.99;98344.06;5083112;28;20109;-61
2021/05/06 02:03:40;;;;;;;432.67;185.20;;;;;;;6.53;62.09;98345.00;5088362;28;20131;-61
2021/05/06 02:06:06;;;;;;;429.40;188.43;;;;;;;6.49;61.44;98335.72;5088355;28;20135;-61
2021/05/06 02:08:32;;;;;;;431.77;186.97;;;;;;;6.39;62.06;98325.59;5084247;28;20107;-61
2021/05/06 02:11:00;;;;;;;429.87;182.57;;;;;;;6.43;62.60;98334.91;5084479;28;20051;-61
2021/05/06 02:13:26;;;;;;;435.77;182.20;;;;;;;6.42;63.22;98329.81;5085700;28;20378;-61
2021/05/06 02:15:57;;;;;;;419.13;177.80;;;;;;;6.35;63.71;98326.47;5085515;28;20101;-61
2021/05/06 02:18:23;;;;;;;407.20;181.43;;;;;;;6.36;63.88;98332.41;5083855;28;20028;-61
2021/05/06 02:20:50;;;;;;;404.57;183.47;;;;;;;6.28;64.46;98339.25;5086956;28;20043;-60
2021/05/06 02:23:16;;;;;;;400.27;178.63;;;;;;;6.28;64.62;98332.44;5086335;28;20149;-62
2021/05/06 02:25:42;;;;;;;402.23;184.00;;;;;;;6.22;64.66;98336.75;5088799;28;20050;-62
2021/05/06 02:28:07;;;;;;;400.23;188.37;;;;;;;6.20;64.64;98326.56;5081557;28;20103;-60
2021/05/06 02:30:33;;;;;;;416.60;209.03;;;;;;;6.30;64.14;98330.75;5085528;28;20209;-60
2021/05/06 02:32:58;;;;;;;419.40;186.50;;;;;;;6.28;64.23;98339.25;5084823;28;20365;-62
2021/05/06 02:35:24;;;;;;;418.23;178.50;;;;;;;6.19;64.85;98334.22;5084938;28;20031;-62
2021/05/06 02:37:49;;;;;;;415.97;173.43;;;;;;;6.15;64.54;98338.50;5087222;28;20101;-60
2021/05/06 02:40:15;;;;;;;410.50;175.73;;;;;;;6.04;64.78;98336.84;5085010;28;20043;-61
2021/05/06 02:42:40;;;;;;;411.27;172.60;;;;;;;6.08;64.52;98347.00;5086366;28;20028;-61
2021/05/06 02:45:07;;;;;;;410.97;174.17;;;;;;;6.04;64.87;98340.25;5083161;28;20028;-62
2021/05/06 02:47:33;;;;;;;412.20;182.33;;;;;;;6.00;64.84;98343.66;5082944;28;20031;-62
2021/05/06 02:49:58;;;;;;;408.50;173.90;;;;;;;6.00;64.58;98350.44;5083244;28;20029;-61
2021/05/06 02:52:48;;;;;;;401.37;176.43;;;;;;;5.98;64.78;98353.00;5083371;28;20040;-61
2021/05/06 02:55:31;;;;;;;401.03;168.80;;;;;;;5.95;64.79;98358.09;5084182;28;20281;-61
2021/05/06 02:58:00;;;;;;;409.13;170.23;;;;;;;6.01;64.47;98354.69;5084060;28;20023;-61
2021/05/06 03:03:10;;;;;;;409.53;172.87;;;;;;;5.95;64.99;98358.09;5084858;28;20101;-60
2021/05/06 03:05:38;;;;;;;413.70;170.93;;;;;;;6.05;63.73;98358.91;5087089;28;20063;-62
2021/05/06 03:10:37;;;;;;;416.27;170.50;;;;;;;5.97;65.03;98349.63;5085745;28;20055;-62
2021/05/06 03:23:58;;;;;;;404.17;160.90;;;;;;;5.80;65.29;98360.69;5086929;28;20023;-62
2021/05/06 03:26:23;;;;;;;411.03;177.10;;;;;;;5.85;65.35;98366.59;5082824;28;20055;-60
2021/05/06 03:29:02;;;;;;;412.87;164.67;;;;;;;5.83;65.08;98375.94;5084990;28;20106;-60
2021/05/06 03:42:40;;;;;;;412.63;173.67;;;;;;;5.88;67.52;98386.97;5073544;28;20078;-61
2021/05/06 04:18:28;;;;;;;351.70;165.70;;;;;;;5.97;67.48;98397.13;4969332;28;20037;-62
2021/05/06 04:26:34;;;;;;;343.53;161.80;;;;;;;6.05;68.04;98397.91;5012795;28;20044;-62
2021/05/06 04:36:59;;;;;;;255.82;121.38;;;;;;;6.35;67.34;98385.03;5085069;28;20182;-62
2021/05/06 04:39:36;;;;;;;345.57;171.97;;;;;;;6.30;67.21;98396.09;5078518;28;20119;-62
2021/05/06 04:50:24;;;;;;;330.23;170.30;;;;;;;6.53;65.55;98414.63;5082121;28;20043;-60
2021/05/06 04:55:44;;;;;;;327.55;169.88;;;;;;;6.68;65.33;98427.25;5081469;28;20026;-62
2021/05/06 05:03:37;;;;;;;317.67;168.90;;;;;;;6.80;65.18;98423.75;5079796;28;20035;-62
2021/05/06 05:06:05;;;;;;;313.10;179.47;;;;;;;6.93;64.06;98432.16;5081418;28;20335;-62
2021/05/06 05:08:37;;;;;;;308.47;175.77;;;;;;;7.07;63.96;98426.09;5084250;28;20347;-62
2021/05/06 05:11:21;;;;;;;313.23;176.30;;;;;;;7.20;63.82;98432.78;5092278;28;20034;-62
2021/05/06 05:26:47;;;;;;;305.20;194.73;;;;;;;8.06;61.33;98438.66;5081880;28;20036;-62
2021/05/06 05:29:12;;;;;;;298.90;201.33;;;;;;;8.10;60.92;98445.44;5080668;28;20253;-61
2021/05/06 05:31:38;;;;;;;275.20;192.47;;;;;;;8.19;59.08;98435.09;5081610;28;20067;-61
2021/05/06 05:34:16;;;;;;;268.40;198.07;;;;;;;8.26;60.01;98441.84;5082918;28;20085;-61
2021/05/06 05:36:41;;;;;;;283.73;210.30;;;;;;;8.30;59.41;98437.56;5084934;28;20024;-61
2021/05/06 05:39:17;;;;;;;273.50;210.47;;;;;;;8.41;59.04;98422.91;5085744;28;20029;-62
2021/05/06 05:54:48;;;;;;;283.77;234.10;;;;;;;9.53;57.30;98418.56;5086782;28;20078;-62
2021/05/06 05:57:14;;;;;;;271.97;236.30;;;;;;;9.63;55.97;98420.06;5084869;28;20440;-61
2021/05/06 05:59:39;;;;;;;279.00;248.80;;;;;;;9.86;55.12;98414.50;5086086;28;20343;-61
2021/05/06 06:02:05;;;;;;;277.47;245.00;;;;;;;10.01;54.44;98414.19;5083820;28;20123;-65
2021/05/06 06:04:32;;;;;;;290.57;258.50;;;;;;;10.10;52.99;98421.69;5086029;28;20031;-62
2021/05/06 06:06:57;;;;;;;294.50;263.03;;;;;;;10.27;51.37;98413.69;5082975;28;20056;-62
2021/05/06 06:09:23;;;;;;;290.70;261.13;;;;;;;10.34;50.28;98411.84;5085741;28;20277;-60
2021/05/06 06:11:49;;;;;;;301.03;268.93;;;;;;;10.41;49.72;98410.84;5081692;28;20142;-61
2021/05/06 06:14:20;;;;;;;298.47;266.60;;;;;;;10.41;49.11;98410.84;5082835;28;20029;-61
2021/05/06 06:16:45;;;;;;;295.40;264.43;;;;;;;10.59;48.80;98415.56;5082567;28;20103;-62
2021/05/06 06:19:11;;;;;;;293.03;261.80;;;;;;;10.67;48.92;98415.38;5083139;28;20085;-63
2021/05/06 06:21:47;;;;;;;303.53;271.70;;;;;;;10.72;48.45;98423.81;5082170;28;20036;-63
2021/05/06 06:24:13;;;;;;;310.23;278.83;;;;;;;10.88;48.37;98423.44;5085106;28;20039;-63
2021/05/06 06:26:38;;;;;;;299.10;270.23;;;;;;;10.78;49.71;98434.75;5084098;28;20377;-61
2021/05/06 06:29:10;;;;;;;306.73;277.13;;;;;;;10.66;50.14;98436.75;5086378;28;20377;-63
2021/05/06 06:31:40;;;;;;;315.03;283.80;;;;;;;10.32;50.26;98434.94;5084294;28;20020;-64
2021/05/06 06:34:06;;;;;;;300.40;270.53;;;;;;;10.44;51.05;98427.00;5083106;28;20024;-64
2021/05/06 06:36:32;;;;;;;283.23;253.87;;;;;;;10.34;51.47;98419.53;5085879;28;20081;-64
2021/05/06 06:38:57;;;;;;;311.47;281.30;;;;;;;10.48;52.44;98428.59;5083013;28;20020;-62
2021/05/06 06:41:23;;;;;;;306.93;277.30;;;;;;;10.44;52.30;98433.81;5093731;28;20016;-62
2021/05/06 06:43:51;;;;;;;312.53;282.23;;;;;;;10.30;53.47;98441.84;5083907;28;20035;-62
2021/05/06 06:46:17;;;;;;;294.83;266.10;;;;;;;10.42;54.09;98422.78;5084950;28;20573;-62
2021/05/06 06:48:44;;;;;;;298.17;269.13;;;;;;;10.28;55.04;98427.34;5083321;28;20016;-62
2021/05/06 06:51:09;;;;;;;301.80;273.37;;;;;;;10.40;56.19;98424.53;5082900;28;20107;-62
2021/05/06 06:53:35;;;;;;;280.00;252.23;;;;;;;10.43;56.01;98416.78;5082373;28;20029;-63
2021/05/06 06:56:01;;;;;;;314.23;284.63;;;;;;;10.51;55.71;98415.75;5084339;28;20024;-62
2021/05/06 06:58:26;;;;;;;314.40;283.97;;;;;;;10.64;55.98;98413.75;5082941;28;20028;-62
2021/05/06 07:00:51;;;;;;;297.13;269.17;;;;;;;10.71;56.52;98410.16;5084168;28;20373;-62
2021/05/06 07:03:17;;;;;;;307.93;279.10;;;;;;;10.89;54.92;98416.59;5082234;28;20024;-63
2021/05/06 07:05:43;;;;;;;289.03;262.30;;;;;;;11.06;56.09;98409.31;5081800;28;20036;-64
2021/05/06 07:08:23;;;;;;;301.77;274.20;;;;;;;11.30;55.69;98406.13;5081922;28;20041;-63
2021/05/06 07:10:51;;;;;;;302.50;274.80;;;;;;;11.43;55.53;98412.63;5080901;28;20033;-62
2021/05/06 07:13:17;;;;;;;319.60;293.30;;;;;;;11.56;55.50;98415.72;5081813;28;20111;-61
2021/05/06 07:15:47;;;;;;;305.17;279.17;;;;;;;11.66;56.35;98400.94;5082170;28;20803;-61
2021/05/06 07:18:13;;;;;;;330.17;303.13;;;;;;;11.74;57.02;98396.47;5079108;28;20392;-61
2021/05/06 07:20:39;;;;;;;323.27;297.20;;;;;;;11.92;55.41;98407.97;5080959;28;20028;-61
2021/05/06 07:23:04;;;;;;;337.27;310.80;;;;;;;11.86;57.21;98412.38;5081011;28;20024;-61
2021/05/06 07:25:29;;;;;;;317.50;292.43;;;;;;;11.80;57.39;98409.97;5080642;28;20046;-61
2021/05/06 07:27:55;;;;;;;335.13;309.23;;;;;;;11.85;56.68;98410.69;5085260;28;20032;-60
2021/05/06 07:30:21;;;;;;;339.73;314.27;;;;;;;11.88;56.85;98414.91;5079893;28;20085;-60
2021/05/06 07:32:46;;;;;;;338.50;312.70;;;;;;;11.75;57.05;98408.44;5088133;28;20017;-60
2021/05/06 07:35:12;;;;;;;333.20;307.33;;;;;;;11.70;56.60;98410.22;5084025;28;20393;-60
2021/05/06 07:37:38;;;;;;;328.40;302.43;;;;;;;11.95;56.36;98407.88;5084785;28;20286;-61
2021/05/06 07:40:05;;;;;;;303.13;281.13;;;;;;;12.04;55.00;98415.31;5081981;28;20041;-60
2021/05/06 07:42:30;;;;;;;275.13;256.13;;;;;;;12.34;54.66;98404.16;5081817;28;20028;-60
2021/05/06 07:44:56;;;;;;;292.25;272.80;;;;;;;12.43;54.18;98405.59;5085184;28;20032;-59
2021/05/06 07:47:21;;;;;;;297.40;278.42;;;;;;;12.49;54.23;98397.69;5083440;28;20269;-59
2021/05/06 07:49:49;;;;;;;283.73;265.65;;;;;;;12.86;54.71;98402.56;5084191;28;20032;-59
2021/05/06 07:52:16;;;;;;;284.80;266.80;;;;;;;12.85;53.73;98406.00;5084457;28;20073;-60
2021/05/06 07:54:42;;;;;;;291.80;273.33;;;;;;;12.76;53.83;98407.16;5083434;28;20775;-60
2021/05/06 07:57:07;;;;;;;286.25;268.88;;;;;;;12.89;54.20;98403.28;5083322;28;20029;-61
2021/05/06 07:59:33;;;;;;;259.50;243.05;;;;;;;12.94;53.88;98398.00;5083083;28;20023;-60
2021/05/06 08:01:59;;;;;;;269.40;253.07;;;;;;;12.91;53.38;98408.38;5082429;28;20024;-60
2021/05/06 08:04:25;;;;;;;286.58;268.40;;;;;;;12.78;53.54;98393.34;5080159;28;20032;-60
2021/05/06 08:06:51;;;;;;;287.63;270.15;;;;;;;12.91;54.81;98390.38;5082548;28;20066;-59
2021/05/06 08:09:16;;;;;;;249.45;234.82;;;;;;;13.02;52.97;98388.31;5082351;28;20046;-61
2021/05/06 08:11:42;;;;;;;207.38;195.93;;;;;;;13.19;52.47;98386.88;5081641;28;20028;-60
2021/05/06 08:14:08;;;;;;;204.48;193.15;;;;;;;13.14;53.21;98393.06;5083456;28;20114;-60
2021/05/06 08:16:33;;;;;;;226.32;213.23;;;;;;;13.16;52.82;98399.00;5084630;28;20130;-60
2021/05/06 08:18:59;;;;;;;238.13;225.10;;;;;;;13.34;53.09;98384.69;5082889;28;20335;-59
2021/05/06 08:21:26;;;;;;;256.52;242.52;;;;;;;13.03;53.19;98377.94;5079983;28;20035;-59
2021/05/06 08:23:52;;;;;;;240.07;226.57;;;;;;;13.40;52.60;98376.75;5082889;28;20028;-60
2021/05/06 08:26:17;;;;;;;312.42;294.63;;;;;;;13.62;53.10;98368.22;5080759;28;20086;-59
2021/05/06 08:28:43;;;;;;;316.75;298.23;;;;;;;14.09;51.31;98369.06;5083703;28;20042;-59
2021/05/06 08:31:08;;;;;;;307.23;289.70;;;;;;;14.20;49.54;98371.25;5083136;28;20434;-60
2021/05/06 08:33:35;;;;;;;316.80;298.50;;;;;;;13.58;49.88;98376.94;5090693;28;20024;-60
2021/05/06 08:36:01;;;;;;;341.27;320.48;;;;;;;13.77;50.29;98378.88;5081162;28;20051;-60
2021/05/06 08:38:27;;;;;;;353.90;332.85;;;;;;;14.04;49.36;98383.03;5081157;28;20044;-60
2021/05/06 08:40:52;;;;;;;380.63;356.95;;;;;;;14.14;49.63;98385.19;5089072;28;20452;-60
2021/05/06 08:43:19;;;;;;;401.50;376.08;;;;;;;13.98;48.47;98385.81;5083386;28;20025;-61
2021/05/06 08:45:49;;;;;;;432.20;404.65;;;;;;;14.26;49.66;98390.81;5081322;28;20016;-60
2021/05/06 08:48:16;;;;;;;446.40;416.95;;;;;;;14.43;48.41;98376.41;5083929;28;20025;-60
2021/05/06 08:50:43;;;;;;;477.45;445.23;;;;;;;14.82;46.82;98360.25;5083834;28;20035;-60
2021/05/06 08:53:10;;;;;;;524.22;485.55;;;;;;;15.22;46.99;98354.28;5079521;28;20028;-60
2021/05/06 08:55:36;;;;;;;548.08;506.08;;;;;;;15.22;45.85;98365.47;5081871;28;20024;-60
2021/05/06 08:58:02;;;;;;;534.58;489.40;;;;;;;15.15;44.60;98364.03;5081710;28;20063;-60
2021/05/06 09:00:27;;;;;;;525.20;480.48;;;;;;;15.36;46.27;98359.72;5085202;28;20081;-61
2021/05/06 09:02:53;;;;;;;522.80;478.73;;;;;;;15.24;44.29;98366.22;5082021;28;20035;-61
2021/05/06 09:05:22;;;;;;;521.60;476.80;;;;;;;15.17;46.67;98358.81;5081514;28;20028;-61
2021/05/06 09:07:48;;;;;;;539.67;493.30;;;;;;;15.16;46.26;98362.28;5084046;28;20040;-61
2021/05/06 09:10:34;;;;;;;544.97;497.65;;;;;;;15.32;44.46;98356.41;5086785;28;20414;-61
2021/05/06 09:13:00;;;;;;;537.00;488.77;;;;;;;14.91;45.66;98370.19;5086883;28;20490;-61
2021/05/06 09:15:26;;;;;;;533.75;486.35;;;;;;;15.12;44.36;98368.47;5088670;28;20085;-60
2021/05/06 09:17:53;;;;;;;557.45;509.85;;;;;;;15.34;44.37;98349.44;5086823;28;20032;-60
2021/05/06 09:20:21;;;;;;;544.63;497.05;;;;;;;15.70;43.01;98349.63;5085598;28;20028;-60
2021/05/06 09:22:52;;;;;;;560.78;513.65;;;;;;;15.92;44.40;98341.75;5087227;28;20089;-61
2021/05/06 09:25:24;;;;;;;580.50;531.38;;;;;;;16.14;42.48;98345.03;5089710;28;20308;-61
2021/05/06 09:28:02;;;;;;;554.92;507.50;;;;;;;16.59;42.93;98333.50;5088009;28;20031;-61
2021/05/06 09:30:27;;;;;;;566.78;519.40;;;;;;;16.10;42.11;98328.00;5085834;28;20368;-61
2021/05/06 09:33:00;;;;;;;585.33;537.55;;;;;;;16.05;42.97;98332.53;5087614;28;20107;-61
2021/05/06 09:35:26;;;;;;;580.55;533.00;;;;;;;16.19;44.45;98326.72;5089230;28;20028;-61
2021/05/06 09:37:52;;;;;;;591.58;543.17;;;;;;;16.48;44.09;98321.03;5086819;28;20035;-60
2021/05/06 09:40:18;;;;;;;588.15;538.88;;;;;;;16.24;43.53;98312.69;5086300;28;20381;-61
2021/05/06 09:42:47;;;;;;;580.03;532.15;;;;;;;16.36;42.23;98312.09;5086173;28;20024;-61
2021/05/06 09:45:24;;;;;;;597.13;546.92;;;;;;;15.56;42.62;98320.13;5084459;28;20078;-61
2021/05/06 09:48:08;;;;;;;585.05;534.97;;;;;;;15.23;43.27;98332.72;5085862;28;20024;-61
2021/05/06 09:50:33;;;;;;;576.53;526.15;;;;;;;15.37;42.52;98322.63;5086684;28;20035;-61
2021/05/06 09:52:58;;;;;;;565.80;519.85;;;;;;;15.24;43.02;98317.16;5085380;28;20024;-61
2021/05/06 09:55:32;;;;;;;565.05;520.42;;;;;;;15.35;42.31;98324.47;5088205;28;20107;-61
2021/05/06 09:58:13;;;;;;;580.28;532.70;;;;;;;14.78;43.26;98328.56;5087387;28;20036;-61
2021/05/06 10:00:39;;;;;;;7.70;2.80;;;;;;;14.62;43.64;98323.19;5084760;28;20017;-60
2021/05/06 10:03:33;;;;;;;6.22;2.90;;;;;;;14.67;44.05;98322.16;5087990;28;20396;-60
2021/05/06 10:06:13;;;;;;;6.25;4.07;;;;;;;14.60;43.65;98316.41;5086849;28;20053;-61
2021/05/06 10:08:39;;;;;;;107.18;101.78;;;;;;;14.38;43.78;98306.13;5084934;28;20125;-61
2021/05/06 10:11:17;;;;;;;150.73;143.80;;;;;;;14.30;43.42;98305.53;5084063;28;20541;-60
2021/05/06 10:13:44;;;;;;;5.97;3.17;;;;;;;14.39;44.22;98309.50;5085798;28;20082;-60
2021/05/06 10:16:11;;;;;;;7.13;2.55;;;;;;;14.69;44.52;98305.72;5086432;28;20534;-61
2021/05/06 10:18:41;;;;;;;8.07;2.80;;;;;;;15.06;42.86;98295.53;5085268;28;20052;-61
2021/05/06 10:21:08;;;;;;;5.10;2.13;;;;;;;15.11;43.15;98297.91;5092206;28;20389;-60
2021/05/06 10:23:35;;;;;;;4.47;2.60;;;;;;;15.07;41.99;98273.13;5085995;28;20025;-60
2021/05/06 10:26:02;;;;;;;7.15;3.63;;;;;;;15.11;42.98;98282.44;5083560;28;20103;-61
2021/05/06 10:28:30;;;;;;;3.80;2.40;;;;;;;15.30;43.32;98278.16;5091130;28;20062;-60
2021/05/06 10:30:59;;;;;;;5.32;2.75;;;;;;;15.39;42.51;98280.34;5089820;28;20090;-60
2021/05/06 10:33:26;;;;;;;4.78;2.88;;;;;;;15.48;41.69;98281.69;5084956;28;20035;-60
2021/05/06 10:35:52;;;;;;;6.13;2.63;;;;;;;15.27;42.45;98285.22;5085547;28;20125;-62
2021/05/06 10:38:18;;;;;;;11.43;3.53;;;;;;;16.06;42.53;98269.56;5085872;28;20064;-61
2021/05/06 10:40:44;;;;;;;6.72;3.25;;;;;;;16.56;40.99;98267.13;5084093;28;20016;-61
2021/05/06 10:43:25;;;;;;;9.75;3.70;;;;;;;17.05;40.74;98278.53;5090135;28;20078;-62
2021/05/06 10:46:04;;;;;;;5.30;3.05;;;;;;;16.57;39.56;98291.28;5087265;28;20020;-61
2021/05/06 10:49:00;;;;;;;7.88;3.35;;;;;;;16.43;39.98;98277.25;5086431;28;20131;-62
2021/05/06 10:51:48;;;;;;;5.65;3.20;;;;;;;16.40;40.77;98274.81;5088080;28;20684;-62
2021/05/06 10:54:50;;;;;;;7.88;3.00;;;;;;;16.35;40.00;98266.44;5083766;28;20105;-62
2021/05/06 10:57:19;;;;;;;7.25;2.88;;;;;;;16.31;38.86;98267.50;5069634;28;20074;-61
2021/05/06 10:59:49;;;;;;;8.38;3.97;;;;;;;16.34;41.33;98272.50;5067104;28;20032;-61
2021/05/06 11:02:33;;;;;;;8.95;3.08;;;;;;;16.11;41.45;98267.59;5070787;28;20293;-60
2021/05/06 11:05:12;;;;;;;6.05;3.35;;;;;;;16.01;41.38;98271.50;5067158;28;20047;-60
2021/05/06 11:07:37;;;;;;;9.48;3.72;;;;;;;16.28;40.75;98265.06;5069677;28;20047;-60
2021/05/06 11:10:04;;;;;;;8.88;3.58;;;;;;;16.08;41.89;98244.47;5069207;28;20032;-60
2021/05/06 11:12:40;;;;;;;6.85;3.38;;;;;;;16.11;41.88;98246.91;5068763;28;20194;-60
2021/05/06 11:15:08;;;;;;;11.43;3.63;;;;;;;16.33;42.81;98244.13;5070314;28;20070;-60
2021/05/06 11:17:39;;;;;;;7.30;3.40;;;;;;;16.48;41.16;98233.03;5068988;28;20051;-60
2021/05/06 11:20:10;;;;;;;7.38;3.42;;;;;;;16.24;40.66;98234.22;5068088;28;20059;-61
2021/05/06 11:22:41;;;;;;;9.57;3.70;;;;;;;16.63;41.51;98231.47;5070172;28;20039;-60
2021/05/06 11:25:25;;;;;;;9.32;2.95;;;;;;;16.96;42.11;98241.88;5069283;28;20055;-60
2021/05/06 11:27:58;;;;;;;8.13;3.55;;;;;;;16.57;41.91;98226.56;5068525;28;20033;-62
2021/05/06 11:30:38;;;;;;;7.97;3.40;;;;;;;16.75;40.81;98225.69;5072736;28;20351;-60
2021/05/06 11:33:28;;;;;;;5.00;2.60;;;;;;;17.00;40.35;98223.53;5086090;28;20058;-60
2021/05/06 11:36:07;;;;;;;6.70;3.00;;;;;;;17.40;40.43;98232.63;5081419;28;20036;-60
2021/05/06 11:41:02;;;;;;;9.32;3.55;;;;;;;17.01;39.06;98226.97;5085124;28;20381;-60
2021/05/06 11:43:27;;;;;;;6.20;2.45;;;;;;;16.70;39.45;98231.09;5086858;28;20073;-60
2021/05/06 11:46:06;;;;;;;9.18;3.78;;;;;;;16.75;41.70;98218.75;5085480;28;20376;-61
2021/05/06 11:48:47;;;;;;;7.22;2.72;;;;;;;16.81;41.11;98210.66;5088014;28;20036;-61
2021/05/06 11:51:32;;;;;;;7.38;3.25;;;;;;;16.77;40.58;98221.25;5082558;28;20032;-60
2021/05/06 11:54:04;;;;;;;;;;;;;;;16.72;41.24;98211.13;5084119;28;20016;-63
2021/05/06 11:56:29;;;;;;;56.15;50.60;;;;;;;15.98;42.19;98225.13;5086966;28;19912;-60
2021/05/06 11:58:55;;;;;;;202.55;187.32;;;;;;;15.55;42.14;98223.69;5084393;28;20032;-62
2021/05/06 12:01:27;;;;;;;250.98;231.23;;;;;;;15.64;43.11;98225.00;5084343;28;20086;-62
2021/05/06 12:03:54;;;;;;;175.27;160.85;;;;;;;15.65;42.08;98212.03;5081902;28;20028;-61
2021/05/06 12:06:28;;;;;;;149.82;138.43;;;;;;;16.09;42.25;98209.94;5086324;28;20055;-62
2021/05/06 12:08:54;;;;;;;13.82;12.65;;;;;;;15.93;42.17;98211.56;5083968;28;20040;-61
2021/05/06 12:11:20;;;;;;;36.60;34.55;;;;;;;16.10;41.95;98214.19;5084382;28;20063;-61
2021/05/06 12:13:46;;;;;;;77.88;72.95;;;;;;;15.87;41.96;98211.88;5083936;28;20031;-61
2021/05/06 12:16:23;;;;;;;388.50;364.60;;;;;;;15.75;41.03;98208.09;5086958;28;20329;-61
2021/05/06 12:19:05;;;;;;;227.93;210.80;;;;;;;15.69;43.19;98208.41;5087175;28;20074;-61
2021/05/06 12:21:50;;;;;;;212.85;197.73;;;;;;;15.64;43.50;98205.19;5085830;28;20126;-61
2021/05/06 12:24:36;;;;;;;239.27;221.30;;;;;;;15.30;42.95;98198.09;5085452;28;20032;-61
2021/05/06 12:27:31;;;;;;;114.30;105.25;;;;;;;15.75;45.12;98191.75;5080710;28;20028;-59
2021/05/06 12:29:57;;;;;;;12.95;6.47;;;;;;;16.12;44.38;98198.63;5084490;28;20047;-60
2021/05/06 12:32:31;;;;;;;7.90;4.20;;;;;;;16.73;43.77;98189.50;5087369;28;20032;-62
2021/05/06 12:35:01;;;;;;;9.75;4.45;;;;;;;16.34;41.61;98179.38;5088694;28;20029;-62
2021/05/06 12:37:31;;;;;;;8.98;4.80;;;;;;;16.68;41.14;98168.19;5091111;28;20049;-62
2021/05/06 12:39:59;;;;;;;6.07;2.75;;;;;;;16.91;41.20;98169.63;5087306;28;20020;-62
2021/05/06 12:42:38;;;;;;;6.43;2.92;;;;;;;16.66;40.30;98169.19;5090134;28;20032;-62
2021/05/06 12:45:23;;;;;;;6.55;2.90;;;;;;;16.90;40.43;98165.34;5088799;28;20044;-62
2021/05/06 12:47:49;;;;;;;8.70;3.65;;;;;;;17.04;40.20;98165.47;5083585;28;20107;-61
2021/05/06 12:50:21;;;;;;;10.73;4.40;;;;;;;17.30;39.07;98148.56;5084200;28;20024;-61
2021/05/06 12:52:50;;;;;;;8.85;4.40;;;;;;;17.61;39.09;98160.72;5083107;28;20020;-60
2021/05/06 12:55:26;;;;;;;9.68;4.13;;;;;;;17.41;38.31;98150.53;5081484;28;20274;-60
2021/05/06 12:58:04;;;;;;;14.02;5.53;;;;;;;17.56;39.49;98157.50;5080280;28;20028;-60
2021/05/06 13:00:33;;;;;;;10.30;4.65;;;;;;;17.91;39.16;98148.63;5082681;28;20365;-61
2021/05/06 13:03:03;;;;;;;11.00;4.90;;;;;;;17.45;37.85;98149.47;5084036;28;20021;-59
2021/05/06 13:05:31;;;;;;;7.63;3.50;;;;;;;17.47;39.10;98147.63;5081467;28;20052;-60
2021/05/06 13:07:57;;;;;;;7.07;3.30;;;;;;;17.17;38.68;98148.38;5083201;28;20041;-60
2021/05/06 13:10:34;;;;;;;13.55;5.00;;;;;;;17.22;38.68;98138.59;5080465;28;20020;-60
2021/05/06 13:13:02;;;;;;;9.48;3.40;;;;;;;16.89;38.77;98136.03;5084306;28;20034;-60
2021/05/06 13:15:29;;;;;;;8.48;3.78;;;;;;;16.98;40.19;98128.69;5082526;28;20024;-60
2021/05/06 13:17:56;;;;;;;11.23;4.45;;;;;;;17.24;39.17;98134.16;5082628;28;20312;-62
2021/05/06 13:20:27;;;;;;;11.55;3.80;;;;;;;16.91;40.12;98133.38;5081189;28;20269;-60
2021/05/06 13:23:10;;;;;;;11.23;4.30;;;;;;;16.90;39.62;98124.75;5081242;28;20143;-60
2021/05/06 13:25:50;;;;;;;6.82;3.03;;;;;;;17.22;40.06;98122.22;5082357;28;20031;-60
2021/05/06 13:28:18;;;;;;;8.45;3.60;;;;;;;16.83;38.67;98138.94;5082035;28;20029;-60
2021/05/06 13:30:46;;;;;;;8.38;3.53;;;;;;;17.08;39.94;98122.94;5085378;28;20388;-60
2021/05/06 13:33:21;;;;;;;9.45;3.80;;;;;;;17.33;39.72;98118.13;5082316;28;20023;-61
2021/05/06 13:36:06;;;;;;;;;;;;;;;17.32;38.68;98121.63;5081244;28;20028;-60
2021/05/06 13:38:52;;;;;;;11.82;3.92;;;;;;;16.66;39.48;98117.44;5082510;28;20003;-60
2021/05/06 13:41:24;;;;;;;9.65;4.35;;;;;;;17.01;40.20;98115.59;5087974;28;20342;-61
2021/05/06 13:43:50;;;;;;;10.48;4.53;;;;;;;17.03;39.18;98112.00;5089435;28;20119;-61
2021/05/06 13:46:17;;;;;;;7.03;3.22;;;;;;;17.10;39.75;98110.75;5082396;28;20024;-61
2021/05/06 13:48:43;;;;;;;8.85;3.13;;;;;;;16.70;39.29;98100.81;5081655;28;20028;-61
2021/05/06 13:51:11;;;;;;;7.75;3.28;;;;;;;16.90;40.79;98101.44;5081837;28;20024;-61
2021/05/06 13:53:40;;;;;;;8.57;3.72;;;;;;;17.50;39.59;98093.03;5083222;28;20131;-61
2021/05/06 13:56:08;;;;;;;12.43;4.75;;;;;;;17.56;38.70;98090.94;5085492;28;20115;-61
2021/05/06 13:58:35;;;;;;;11.55;4.20;;;;;;;17.37;38.76;98085.09;5082815;28;20024;-61
2021/05/06 14:01:01;;;;;;;11.10;4.05;;;;;;;17.39;38.31;98072.06;5085224;28;20118;-62
2021/05/06 14:03:28;;;;;;;8.90;4.10;;;;;;;17.21;40.05;98079.09;5085877;28;20246;-61
2021/05/06 14:05:54;;;;;;;11.55;4.32;;;;;;;17.20;39.86;98085.19;5086131;28;20048;-63
2021/05/06 14:08:20;;;;;;;10.27;4.10;;;;;;;17.34;38.94;98070.56;5084237;28;20055;-61
2021/05/06 14:10:46;;;;;;;10.43;4.18;;;;;;;17.08;38.75;98073.75;5087386;28;20027;-61
2021/05/06 14:13:15;;;;;;;13.45;5.03;;;;;;;16.93;38.52;98068.56;5084054;28;20035;-61
2021/05/06 14:15:41;;;;;;;11.20;4.43;;;;;;;16.70;38.69;98049.06;5081963;28;20415;-62
2021/05/06 14:18:06;;;;;;;13.55;5.25;;;;;;;16.72;38.05;98044.66;5083105;28;20078;-60
2021/05/06 14:20:32;;;;;;;8.63;3.53;;;;;;;16.66;38.92;98044.97;5083101;28;20020;-61
2021/05/06 14:22:58;;;;;;;9.57;3.50;;;;;;;16.68;38.82;98037.94;5082564;28;20016;-61
2021/05/06 14:25:23;;;;;;;13.93;5.05;;;;;;;16.57;38.73;98038.50;5084325;28;20051;-60
2021/05/06 14:27:49;;;;;;;12.93;4.70;;;;;;;16.88;38.64;98025.63;5084044;28;20028;-60
2021/05/06 14:30:15;;;;;;;12.13;3.30;;;;;;;16.89;39.10;98031.59;5083026;28;20028;-60
2021/05/06 14:32:41;;;;;;;9.27;3.55;;;;;;;16.59;38.11;98028.91;5084712;28;20033;-61